sensor_id;sensor_type;location;lat;lon;timestamp;temperature;humidity
7844;DHT22;3967;48.702;9.326;2022-09-03T00:01:36;18.50;67.70
7844;DHT22;3967;48.702;9.326;2022-09-03T00:04:11;18.50;68.00
7844;DHT22;3967;48.702;9.326;2022-09-03T00:06:59;18.50;68.20
7844;DHT22;3967;48.702;9.326;2022-09-03T00:09:32;18.60;68.00
7844;DHT22;3967;48.702;9.326;2022-09-03T00:12:10;18.60;68.00
7844;DHT22;3967;48.702;9.326;2022-09-03T00:14:45;18.50;68.20
7844;DHT22;3967;48.702;9.326;2022-09-03T00:17:18;18.40;68.60
7844;DHT22;3967;48.702;9.326;2022-09-03T00:19:57;18.30;68.90
7844;DHT22;3967;48.702;9.326;2022-09-03T00:22:38;18.40;68.70
7844;DHT22;3967;48.702;9.326;2022-09-03T00:25:09;18.30;69.00
7844;DHT22;3967;48.702;9.326;2022-09-03T00:27:41;18.30;68.80
7844;DHT22;3967;48.702;9.326;2022-09-03T00:30:11;18.40;68.80
7844;DHT22;3967;48.702;9.326;2022-09-03T00:33:00;18.40;68.70
7844;DHT22;3967;48.702;9.326;2022-09-03T00:35:40;18.40;68.50
7844;DHT22;3967;48.702;9.326;2022-09-03T00:38:08;18.50;68.40
7844;DHT22;3967;48.702;9.326;2022-09-03T00:46:08;18.50;68.50
7844;DHT22;3967;48.702;9.326;2022-09-03T00:51:44;18.50;68.60
7844;DHT22;3967;48.702;9.326;2022-09-03T00:57:29;18.50;68.80
7844;DHT22;3967;48.702;9.326;2022-09-03T01:00:07;18.50;69.70
7844;DHT22;3967;48.702;9.326;2022-09-03T01:02:49;18.50;68.90
7844;DHT22;3967;48.702;9.326;2022-09-03T01:08:15;18.50;69.00
7844;DHT22;3967;48.702;9.326;2022-09-03T01:17:20;18.40;69.30
7844;DHT22;3967;48.702;9.326;2022-09-03T01:19:55;18.30;69.70
7844;DHT22;3967;48.702;9.326;2022-09-03T01:30:40;18.10;70.60
7844;DHT22;3967;48.702;9.326;2022-09-03T01:36:10;18.30;70.30
7844;DHT22;3967;48.702;9.326;2022-09-03T01:38:43;18.20;70.40
7844;DHT22;3967;48.702;9.326;2022-09-03T01:44:21;18.20;70.80
7844;DHT22;3967;48.702;9.326;2022-09-03T01:52:14;18.40;70.50
7844;DHT22;3967;48.702;9.326;2022-09-03T01:57:53;18.40;70.70
7844;DHT22;3967;48.702;9.326;2022-09-03T02:00:23;18.50;70.60
7844;DHT22;3967;48.702;9.326;2022-09-03T02:02:52;18.40;70.70
7844;DHT22;3967;48.702;9.326;2022-09-03T02:05:23;18.40;71.10
7844;DHT22;3967;48.702;9.326;2022-09-03T02:08:02;18.50;71.00
7844;DHT22;3967;48.702;9.326;2022-09-03T02:13:07;18.30;71.40
7844;DHT22;3967;48.702;9.326;2022-09-03T02:15:42;18.40;71.40
7844;DHT22;3967;48.702;9.326;2022-09-03T02:18:19;18.50;71.40
7844;DHT22;3967;48.702;9.326;2022-09-03T02:20:47;18.60;71.30
7844;DHT22;3967;48.702;9.326;2022-09-03T02:23:14;18.60;71.30
7844;DHT22;3967;48.702;9.326;2022-09-03T02:25:46;18.70;71.50
7844;DHT22;3967;48.702;9.326;2022-09-03T02:28:14;18.70;71.40
7844;DHT22;3967;48.702;9.326;2022-09-03T02:30:53;18.70;71.50
7844;DHT22;3967;48.702;9.326;2022-09-03T02:33:21;18.60;72.10
7844;DHT22;3967;48.702;9.326;2022-09-03T02:35:48;18.70;72.30
7844;DHT22;3967;48.702;9.326;2022-09-03T02:38:23;18.70;72.80
7844;DHT22;3967;48.702;9.326;2022-09-03T02:40:53;18.60;72.80
7844;DHT22;3967;48.702;9.326;2022-09-03T02:45:54;18.40;73.00
7844;DHT22;3967;48.702;9.326;2022-09-03T02:48:23;18.30;73.10
7844;DHT22;3967;48.702;9.326;2022-09-03T02:50:51;18.30;72.90
7844;DHT22;3967;48.702;9.326;2022-09-03T02:53:17;18.20;72.70
7844;DHT22;3967;48.702;9.326;2022-09-03T02:55:44;18.30;73.00
7844;DHT22;3967;48.702;9.326;2022-09-03T02:58:12;18.30;72.80
7844;DHT22;3967;48.702;9.326;2022-09-03T03:00:38;18.30;72.80
7844;DHT22;3967;48.702;9.326;2022-09-03T03:03:06;18.10;73.10
7844;DHT22;3967;48.702;9.326;2022-09-03T03:05:47;18.10;73.60
7844;DHT22;3967;48.702;9.326;2022-09-03T03:08:15;17.90;73.70
7844;DHT22;3967;48.702;9.326;2022-09-03T03:10:42;18.00;73.90
7844;DHT22;3967;48.702;9.326;2022-09-03T03:13:12;18.10;74.00
7844;DHT22;3967;48.702;9.326;2022-09-03T03:15:39;18.10;74.00
7844;DHT22;3967;48.702;9.326;2022-09-03T03:18:06;18.10;74.10
7844;DHT22;3967;48.702;9.326;2022-09-03T03:20:33;17.90;74.40
7844;DHT22;3967;48.702;9.326;2022-09-03T03:23:04;17.90;74.70
7844;DHT22;3967;48.702;9.326;2022-09-03T03:25:35;18.00;74.70
7844;DHT22;3967;48.702;9.326;2022-09-03T03:28:03;18.00;74.90
7844;DHT22;3967;48.702;9.326;2022-09-03T03:30:31;17.90;75.00
7844;DHT22;3967;48.702;9.326;2022-09-03T03:32:58;18.00;75.20
7844;DHT22;3967;48.702;9.326;2022-09-03T03:35:25;18.00;75.10
7844;DHT22;3967;48.702;9.326;2022-09-03T03:37:52;18.10;75.30
7844;DHT22;3967;48.702;9.326;2022-09-03T03:40:19;18.10;75.20
7844;DHT22;3967;48.702;9.326;2022-09-03T03:42:45;18.10;75.30
7844;DHT22;3967;48.702;9.326;2022-09-03T03:45:12;17.90;75.80
7844;DHT22;3967;48.702;9.326;2022-09-03T03:47:39;17.90;75.80
7844;DHT22;3967;48.702;9.326;2022-09-03T03:50:06;17.80;76.20
7844;DHT22;3967;48.702;9.326;2022-09-03T03:52:33;17.60;76.70
7844;DHT22;3967;48.702;9.326;2022-09-03T03:54:59;17.60;77.20
7844;DHT22;3967;48.702;9.326;2022-09-03T03:57:29;17.70;77.30
7844;DHT22;3967;48.702;9.326;2022-09-03T03:59:56;17.80;77.10
7844;DHT22;3967;48.702;9.326;2022-09-03T04:02:23;17.90;77.20
7844;DHT22;3967;48.702;9.326;2022-09-03T04:04:50;18.00;77.30
7844;DHT22;3967;48.702;9.326;2022-09-03T04:07:16;18.00;78.00
7844;DHT22;3967;48.702;9.326;2022-09-03T04:09:43;17.90;78.20
7844;DHT22;3967;48.702;9.326;2022-09-03T04:12:10;17.90;78.60
7844;DHT22;3967;48.702;9.326;2022-09-03T04:14:37;17.80;79.40
7844;DHT22;3967;48.702;9.326;2022-09-03T04:17:04;17.70;80.20
7844;DHT22;3967;48.702;9.326;2022-09-03T04:19:31;17.80;80.80
7844;DHT22;3967;48.702;9.326;2022-09-03T04:21:57;17.80;80.50
7844;DHT22;3967;48.702;9.326;2022-09-03T04:24:24;17.70;80.30
7844;DHT22;3967;48.702;9.326;2022-09-03T04:26:52;17.50;80.00
7844;DHT22;3967;48.702;9.326;2022-09-03T04:29:19;17.40;80.00
7844;DHT22;3967;48.702;9.326;2022-09-03T04:31:47;17.30;80.10
7844;DHT22;3967;48.702;9.326;2022-09-03T04:34:32;17.30;80.10
7844;DHT22;3967;48.702;9.326;2022-09-03T04:36:59;17.30;80.00
7844;DHT22;3967;48.702;9.326;2022-09-03T04:39:26;17.20;80.30
7844;DHT22;3967;48.702;9.326;2022-09-03T04:41:53;17.40;80.00
7844;DHT22;3967;48.702;9.326;2022-09-03T04:44:20;17.50;79.40
7844;DHT22;3967;48.702;9.326;2022-09-03T04:46:46;17.60;79.10
7844;DHT22;3967;48.702;9.326;2022-09-03T04:49:13;17.70;78.90
7844;DHT22;3967;48.702;9.326;2022-09-03T04:51:40;17.60;78.90
7844;DHT22;3967;48.702;9.326;2022-09-03T04:54:07;17.60;79.70
7844;DHT22;3967;48.702;9.326;2022-09-03T04:56:37;17.50;80.00
7844;DHT22;3967;48.702;9.326;2022-09-03T04:59:06;17.60;80.80
7844;DHT22;3967;48.702;9.326;2022-09-03T05:01:35;17.60;81.10
7844;DHT22;3967;48.702;9.326;2022-09-03T05:04:04;17.60;80.90
7844;DHT22;3967;48.702;9.326;2022-09-03T05:06:31;17.60;80.80
7844;DHT22;3967;48.702;9.326;2022-09-03T05:08:58;17.60;80.50
7844;DHT22;3967;48.702;9.326;2022-09-03T05:11:26;17.60;80.60
7844;DHT22;3967;48.702;9.326;2022-09-03T05:13:56;17.50;80.80
7844;DHT22;3967;48.702;9.326;2022-09-03T05:16:24;17.50;81.00
7844;DHT22;3967;48.702;9.326;2022-09-03T05:18:55;17.50;80.90
7844;DHT22;3967;48.702;9.326;2022-09-03T05:21:23;17.60;81.50
7844;DHT22;3967;48.702;9.326;2022-09-03T05:23:50;17.70;80.80
7844;DHT22;3967;48.702;9.326;2022-09-03T05:26:24;17.70;80.50
7844;DHT22;3967;48.702;9.326;2022-09-03T05:28:54;17.70;80.80
7844;DHT22;3967;48.702;9.326;2022-09-03T05:31:22;17.80;81.10
7844;DHT22;3967;48.702;9.326;2022-09-03T05:33:53;17.70;81.30
7844;DHT22;3967;48.702;9.326;2022-09-03T05:36:24;17.70;81.70
7844;DHT22;3967;48.702;9.326;2022-09-03T05:38:51;17.70;82.20
7844;DHT22;3967;48.702;9.326;2022-09-03T05:41:24;17.70;81.90
7844;DHT22;3967;48.702;9.326;2022-09-03T05:43:52;17.70;82.50
7844;DHT22;3967;48.702;9.326;2022-09-03T05:46:27;17.80;82.80
7844;DHT22;3967;48.702;9.326;2022-09-03T05:49:03;17.70;82.90
7844;DHT22;3967;48.702;9.326;2022-09-03T05:51:31;17.80;82.80
7844;DHT22;3967;48.702;9.326;2022-09-03T05:53:58;17.80;82.70
7844;DHT22;3967;48.702;9.326;2022-09-03T05:56:27;17.80;83.20
7844;DHT22;3967;48.702;9.326;2022-09-03T05:58:56;17.80;83.10
7844;DHT22;3967;48.702;9.326;2022-09-03T06:01:24;17.80;83.30
7844;DHT22;3967;48.702;9.326;2022-09-03T06:03:55;17.80;83.40
7844;DHT22;3967;48.702;9.326;2022-09-03T06:06:24;17.80;83.60
7844;DHT22;3967;48.702;9.326;2022-09-03T06:08:59;17.80;83.90
7844;DHT22;3967;48.702;9.326;2022-09-03T06:11:29;17.70;85.00
7844;DHT22;3967;48.702;9.326;2022-09-03T06:13:57;17.70;85.40
7844;DHT22;3967;48.702;9.326;2022-09-03T06:16:27;17.80;85.40
7844;DHT22;3967;48.702;9.326;2022-09-03T06:19:00;17.80;84.70
7844;DHT22;3967;48.702;9.326;2022-09-03T06:21:28;17.80;84.20
7844;DHT22;3967;48.702;9.326;2022-09-03T06:23:56;17.70;84.50
7844;DHT22;3967;48.702;9.326;2022-09-03T06:26:25;17.70;84.40
7844;DHT22;3967;48.702;9.326;2022-09-03T06:28:54;17.80;84.50
7844;DHT22;3967;48.702;9.326;2022-09-03T06:31:22;17.80;85.30
7844;DHT22;3967;48.702;9.326;2022-09-03T06:33:49;17.80;84.60
7844;DHT22;3967;48.702;9.326;2022-09-03T06:36:18;17.90;84.80
7844;DHT22;3967;48.702;9.326;2022-09-03T06:38:46;17.90;85.00
7844;DHT22;3967;48.702;9.326;2022-09-03T06:41:15;17.90;85.30
7844;DHT22;3967;48.702;9.326;2022-09-03T06:43:57;17.80;84.90
7844;DHT22;3967;48.702;9.326;2022-09-03T06:46:32;17.90;84.90
7844;DHT22;3967;48.702;9.326;2022-09-03T06:49:00;17.80;85.00
7844;DHT22;3967;48.702;9.326;2022-09-03T06:51:29;17.90;85.10
7844;DHT22;3967;48.702;9.326;2022-09-03T06:54:01;17.90;85.10
7844;DHT22;3967;48.702;9.326;2022-09-03T06:56:29;18.00;85.00
7844;DHT22;3967;48.702;9.326;2022-09-03T06:59:03;18.00;85.00
7844;DHT22;3967;48.702;9.326;2022-09-03T07:01:31;17.90;84.80
7844;DHT22;3967;48.702;9.326;2022-09-03T07:04:03;18.10;85.40
7844;DHT22;3967;48.702;9.326;2022-09-03T07:06:33;18.10;85.10
7844;DHT22;3967;48.702;9.326;2022-09-03T07:09:02;18.20;84.80
7844;DHT22;3967;48.702;9.326;2022-09-03T07:11:30;18.30;84.30
7844;DHT22;3967;48.702;9.326;2022-09-03T07:13:59;18.40;84.00
7844;DHT22;3967;48.702;9.326;2022-09-03T07:16:34;18.30;84.20
7844;DHT22;3967;48.702;9.326;2022-09-03T07:19:02;18.20;85.10
7844;DHT22;3967;48.702;9.326;2022-09-03T07:21:31;18.20;85.20
7844;DHT22;3967;48.702;9.326;2022-09-03T07:24:13;18.40;84.90
7844;DHT22;3967;48.702;9.326;2022-09-03T07:26:41;18.50;84.20
7844;DHT22;3967;48.702;9.326;2022-09-03T07:29:13;18.50;84.30
7844;DHT22;3967;48.702;9.326;2022-09-03T07:31:42;18.50;84.40
7844;DHT22;3967;48.702;9.326;2022-09-03T07:34:11;18.60;84.50
7844;DHT22;3967;48.702;9.326;2022-09-03T07:36:40;18.60;84.90
7844;DHT22;3967;48.702;9.326;2022-09-03T07:39:09;18.60;85.30
7844;DHT22;3967;48.702;9.326;2022-09-03T07:41:43;18.60;86.00
7844;DHT22;3967;48.702;9.326;2022-09-03T07:44:12;18.70;86.60
7844;DHT22;3967;48.702;9.326;2022-09-03T07:46:41;18.80;86.40
7844;DHT22;3967;48.702;9.326;2022-09-03T07:49:09;18.80;86.00
7844;DHT22;3967;48.702;9.326;2022-09-03T07:51:37;18.80;87.10
7844;DHT22;3967;48.702;9.326;2022-09-03T07:54:07;18.90;87.00
7844;DHT22;3967;48.702;9.326;2022-09-03T07:56:37;19.00;87.00
7844;DHT22;3967;48.702;9.326;2022-09-03T07:59:04;19.10;87.00
7844;DHT22;3967;48.702;9.326;2022-09-03T08:01:32;19.30;86.50
7844;DHT22;3967;48.702;9.326;2022-09-03T08:04:00;19.20;85.90
7844;DHT22;3967;48.702;9.326;2022-09-03T08:06:28;19.30;85.90
7844;DHT22;3967;48.702;9.326;2022-09-03T08:09:00;19.40;86.50
7844;DHT22;3967;48.702;9.326;2022-09-03T08:11:32;19.70;85.70
7844;DHT22;3967;48.702;9.326;2022-09-03T08:14:05;19.80;85.40
7844;DHT22;3967;48.702;9.326;2022-09-03T08:16:38;20.10;86.50
7844;DHT22;3967;48.702;9.326;2022-09-03T08:19:05;20.10;85.20
7844;DHT22;3967;48.702;9.326;2022-09-03T08:21:33;19.90;85.20
7844;DHT22;3967;48.702;9.326;2022-09-03T08:24:00;20.10;86.80
7844;DHT22;3967;48.702;9.326;2022-09-03T08:26:31;20.20;86.30
7844;DHT22;3967;48.702;9.326;2022-09-03T08:28:58;20.10;86.70
7844;DHT22;3967;48.702;9.326;2022-09-03T08:31:26;20.20;86.80
7844;DHT22;3967;48.702;9.326;2022-09-03T08:33:55;20.20;87.30
7844;DHT22;3967;48.702;9.326;2022-09-03T08:36:27;20.10;87.50
7844;DHT22;3967;48.702;9.326;2022-09-03T08:38:57;20.20;86.80
7844;DHT22;3967;48.702;9.326;2022-09-03T08:49:14;20.90;85.20
7844;DHT22;3967;48.702;9.326;2022-09-03T08:51:44;20.90;85.10
7844;DHT22;3967;48.702;9.326;2022-09-03T08:54:13;21.00;83.20
7844;DHT22;3967;48.702;9.326;2022-09-03T08:56:42;21.10;82.70
7844;DHT22;3967;48.702;9.326;2022-09-03T08:59:09;21.40;81.50
7844;DHT22;3967;48.702;9.326;2022-09-03T09:01:56;21.70;81.40
7844;DHT22;3967;48.702;9.326;2022-09-03T09:04:57;22.10;81.90
7844;DHT22;3967;48.702;9.326;2022-09-03T09:13:30;22.80;78.50
7844;DHT22;3967;48.702;9.326;2022-09-03T09:16:14;22.80;78.40
7844;DHT22;3967;48.702;9.326;2022-09-03T09:21:27;22.70;80.50
7844;DHT22;3967;48.702;9.326;2022-09-03T09:24:00;22.70;80.40
7844;DHT22;3967;48.702;9.326;2022-09-03T09:26:29;22.80;79.10
7844;DHT22;3967;48.702;9.326;2022-09-03T09:29:04;22.70;79.40
7844;DHT22;3967;48.702;9.326;2022-09-03T09:31:37;22.60;79.00
7844;DHT22;3967;48.702;9.326;2022-09-03T09:34:07;22.40;78.70
7844;DHT22;3967;48.702;9.326;2022-09-03T09:36:44;22.50;79.60
7844;DHT22;3967;48.702;9.326;2022-09-03T09:39:12;22.60;79.30
7844;DHT22;3967;48.702;9.326;2022-09-03T09:41:42;22.60;79.00
7844;DHT22;3967;48.702;9.326;2022-09-03T09:44:19;22.70;78.40
7844;DHT22;3967;48.702;9.326;2022-09-03T09:46:46;22.70;77.70
7844;DHT22;3967;48.702;9.326;2022-09-03T09:52:04;22.60;79.40
7844;DHT22;3967;48.702;9.326;2022-09-03T09:54:33;22.60;79.90
7844;DHT22;3967;48.702;9.326;2022-09-03T09:57:15;22.70;80.00
7844;DHT22;3967;48.702;9.326;2022-09-03T09:59:45;22.50;80.70
7844;DHT22;3967;48.702;9.326;2022-09-03T10:02:18;22.70;80.10
7844;DHT22;3967;48.702;9.326;2022-09-03T10:04:48;22.70;78.40
7844;DHT22;3967;48.702;9.326;2022-09-03T10:07:23;22.80;78.00
7844;DHT22;3967;48.702;9.326;2022-09-03T10:10:18;23.20;78.10
7844;DHT22;3967;48.702;9.326;2022-09-03T10:12:56;23.40;78.00
7844;DHT22;3967;48.702;9.326;2022-09-03T10:15:34;23.70;78.10
7844;DHT22;3967;48.702;9.326;2022-09-03T10:18:10;23.90;77.50
7844;DHT22;3967;48.702;9.326;2022-09-03T10:23:26;24.20;76.70
7844;DHT22;3967;48.702;9.326;2022-09-03T10:26:00;24.00;76.80
7844;DHT22;3967;48.702;9.326;2022-09-03T10:28:34;23.90;76.90
7844;DHT22;3967;48.702;9.326;2022-09-03T10:42:33;24.40;75.80
7844;DHT22;3967;48.702;9.326;2022-09-03T10:45:31;24.60;76.00
7844;DHT22;3967;48.702;9.326;2022-09-03T10:54:36;24.20;76.50
7844;DHT22;3967;48.702;9.326;2022-09-03T11:00:02;23.90;75.40
7844;DHT22;3967;48.702;9.326;2022-09-03T11:08:11;23.90;76.20
7844;DHT22;3967;48.702;9.326;2022-09-03T11:10:56;23.80;76.50
7844;DHT22;3967;48.702;9.326;2022-09-03T11:13:30;24.00;76.50
7844;DHT22;3967;48.702;9.326;2022-09-03T11:16:07;24.00;76.40
7844;DHT22;3967;48.702;9.326;2022-09-03T11:18:46;24.00;77.00
7844;DHT22;3967;48.702;9.326;2022-09-03T11:21:17;24.10;76.00
7844;DHT22;3967;48.702;9.326;2022-09-03T11:23:48;24.10;77.20
7844;DHT22;3967;48.702;9.326;2022-09-03T11:26:23;24.30;76.40
7844;DHT22;3967;48.702;9.326;2022-09-03T11:34:24;24.20;75.50
7844;DHT22;3967;48.702;9.326;2022-09-03T11:37:22;24.20;75.60
7844;DHT22;3967;48.702;9.326;2022-09-03T11:42:29;24.00;75.50
7844;DHT22;3967;48.702;9.326;2022-09-03T11:47:47;24.10;75.60
7844;DHT22;3967;48.702;9.326;2022-09-03T11:50:23;23.90;76.00
7844;DHT22;3967;48.702;9.326;2022-09-03T11:52:53;24.00;75.70
7844;DHT22;3967;48.702;9.326;2022-09-03T11:55:28;23.90;75.80
7844;DHT22;3967;48.702;9.326;2022-09-03T11:58:21;23.90;76.80
7844;DHT22;3967;48.702;9.326;2022-09-03T12:00:49;23.80;77.20
7844;DHT22;3967;48.702;9.326;2022-09-03T12:03:25;23.90;78.30
7844;DHT22;3967;48.702;9.326;2022-09-03T12:14:25;23.70;84.50
7844;DHT22;3967;48.702;9.326;2022-09-03T12:16:56;23.60;88.90
7844;DHT22;3967;48.702;9.326;2022-09-03T12:21:51;23.30;91.30
7844;DHT22;3967;48.702;9.326;2022-09-03T12:24:18;22.70;92.80
7844;DHT22;3967;48.702;9.326;2022-09-03T12:26:45;22.10;93.00
7844;DHT22;3967;48.702;9.326;2022-09-03T12:29:24;21.20;92.90
7844;DHT22;3967;48.702;9.326;2022-09-03T12:31:53;20.30;95.00
7844;DHT22;3967;48.702;9.326;2022-09-03T12:34:22;19.90;95.60
7844;DHT22;3967;48.702;9.326;2022-09-03T12:36:52;19.80;97.70
7844;DHT22;3967;48.702;9.326;2022-09-03T12:39:24;19.80;98.00
7844;DHT22;3967;48.702;9.326;2022-09-03T12:42:22;19.60;98.60
7844;DHT22;3967;48.702;9.326;2022-09-03T12:44:50;19.30;99.40
7844;DHT22;3967;48.702;9.326;2022-09-03T12:47:20;19.60;99.90
7844;DHT22;3967;48.702;9.326;2022-09-03T12:50:07;19.80;99.90
7844;DHT22;3967;48.702;9.326;2022-09-03T12:52:51;19.90;99.80
7844;DHT22;3967;48.702;9.326;2022-09-03T12:55:23;19.90;99.60
7844;DHT22;3967;48.702;9.326;2022-09-03T12:58:03;19.80;99.80
7844;DHT22;3967;48.702;9.326;2022-09-03T13:00:39;19.90;99.60
7844;DHT22;3967;48.702;9.326;2022-09-03T13:03:15;20.10;99.90
7844;DHT22;3967;48.702;9.326;2022-09-03T13:05:51;19.90;99.60
7844;DHT22;3967;48.702;9.326;2022-09-03T13:08:26;19.90;99.90
7844;DHT22;3967;48.702;9.326;2022-09-03T13:10:57;20.00;99.90
7844;DHT22;3967;48.702;9.326;2022-09-03T13:13:27;20.00;99.90
7844;DHT22;3967;48.702;9.326;2022-09-03T13:23:55;20.10;99.90
7844;DHT22;3967;48.702;9.326;2022-09-03T13:26:39;20.10;99.90
7844;DHT22;3967;48.702;9.326;2022-09-03T13:32:05;20.00;99.80
7844;DHT22;3967;48.702;9.326;2022-09-03T13:34:36;20.00;98.70
7844;DHT22;3967;48.702;9.326;2022-09-03T13:37:26;20.10;98.50
7844;DHT22;3967;48.702;9.326;2022-09-03T13:40:11;20.10;99.40
7844;DHT22;3967;48.702;9.326;2022-09-03T13:42:47;20.00;99.90
7844;DHT22;3967;48.702;9.326;2022-09-03T13:48:35;19.80;99.90
7844;DHT22;3967;48.702;9.326;2022-09-03T13:51:36;19.80;99.90
7844;DHT22;3967;48.702;9.326;2022-09-03T14:00:04;20.00;99.90
7844;DHT22;3967;48.702;9.326;2022-09-03T14:05:24;20.10;99.90
7844;DHT22;3967;48.702;9.326;2022-09-03T14:08:04;20.30;99.90
7844;DHT22;3967;48.702;9.326;2022-09-03T14:10:56;20.10;99.90
7844;DHT22;3967;48.702;9.326;2022-09-03T14:16:58;20.10;99.90
7844;DHT22;3967;48.702;9.326;2022-09-03T14:24:58;20.50;99.90
7844;DHT22;3967;48.702;9.326;2022-09-03T14:27:28;20.50;99.90
7844;DHT22;3967;48.702;9.326;2022-09-03T14:30:17;20.70;99.90
7844;DHT22;3967;48.702;9.326;2022-09-03T14:35:27;20.70;99.90
7844;DHT22;3967;48.702;9.326;2022-09-03T14:38:09;20.70;99.90
7844;DHT22;3967;48.702;9.326;2022-09-03T14:40:43;20.70;99.80
7844;DHT22;3967;48.702;9.326;2022-09-03T14:46:00;20.50;99.40
7844;DHT22;3967;48.702;9.326;2022-09-03T14:49:09;20.50;99.10
7844;DHT22;3967;48.702;9.326;2022-09-03T15:00:21;20.90;99.40
7844;DHT22;3967;48.702;9.326;2022-09-03T15:11:09;21.20;98.80
7844;DHT22;3967;48.702;9.326;2022-09-03T15:13:52;21.40;98.70
7844;DHT22;3967;48.702;9.326;2022-09-03T15:24:31;21.50;96.40
7844;DHT22;3967;48.702;9.326;2022-09-03T15:28:04;21.50;96.00
7844;DHT22;3967;48.702;9.326;2022-09-03T15:30:13;21.50;95.90
7844;DHT22;3967;48.702;9.326;2022-09-03T15:33:06;21.60;94.90
7844;DHT22;3967;48.702;9.326;2022-09-03T15:41:01;22.00;94.40
7844;DHT22;3967;48.702;9.326;2022-09-03T15:43:31;22.20;94.30
7844;DHT22;3967;48.702;9.326;2022-09-03T15:46:05;22.20;93.90
7844;DHT22;3967;48.702;9.326;2022-09-03T15:48:55;22.20;94.00
7844;DHT22;3967;48.702;9.326;2022-09-03T15:54:47;22.10;93.50
7844;DHT22;3967;48.702;9.326;2022-09-03T15:57:25;22.00;94.60
7844;DHT22;3967;48.702;9.326;2022-09-03T16:00:05;22.10;93.70
7844;DHT22;3967;48.702;9.326;2022-09-03T16:02:55;22.20;93.80
7844;DHT22;3967;48.702;9.326;2022-09-03T16:05:39;22.00;93.50
7844;DHT22;3967;48.702;9.326;2022-09-03T16:08:43;22.10;93.90
7844;DHT22;3967;48.702;9.326;2022-09-03T16:11:12;22.40;93.80
7844;DHT22;3967;48.702;9.326;2022-09-03T16:14:09;22.20;93.30
7844;DHT22;3967;48.702;9.326;2022-09-03T16:19:44;22.20;93.80
7844;DHT22;3967;48.702;9.326;2022-09-03T16:22:29;22.20;93.80
7844;DHT22;3967;48.702;9.326;2022-09-03T16:25:11;22.10;94.00
7844;DHT22;3967;48.702;9.326;2022-09-03T16:27:53;22.20;94.50
7844;DHT22;3967;48.702;9.326;2022-09-03T16:58:21;22.00;96.90
7844;DHT22;3967;48.702;9.326;2022-09-03T17:06:48;21.70;99.40
7844;DHT22;3967;48.702;9.326;2022-09-03T17:15:31;21.90;97.00
7844;DHT22;3967;48.702;9.326;2022-09-03T17:18:34;22.00;96.90
7844;DHT22;3967;48.702;9.326;2022-09-03T17:26:33;22.00;96.30
7844;DHT22;3967;48.702;9.326;2022-09-03T17:34:40;22.10;97.20
7844;DHT22;3967;48.702;9.326;2022-09-03T17:40:35;22.10;96.90
7844;DHT22;3967;48.702;9.326;2022-09-03T17:48:44;22.10;97.60
7844;DHT22;3967;48.702;9.326;2022-09-03T17:57:12;22.00;97.30
7844;DHT22;3967;48.702;9.326;2022-09-03T18:00:07;21.80;97.60
7844;DHT22;3967;48.702;9.326;2022-09-03T18:02:55;21.70;98.20
7844;DHT22;3967;48.702;9.326;2022-09-03T18:16:10;21.40;98.90
7844;DHT22;3967;48.702;9.326;2022-09-03T18:18:49;21.40;98.90
7844;DHT22;3967;48.702;9.326;2022-09-03T18:21:22;21.40;99.30
7844;DHT22;3967;48.702;9.326;2022-09-03T18:27:21;21.30;99.00
7844;DHT22;3967;48.702;9.326;2022-09-03T18:30:09;21.30;99.10
7844;DHT22;3967;48.702;9.326;2022-09-03T18:32:55;21.10;98.60
7844;DHT22;3967;48.702;9.326;2022-09-03T18:35:45;21.10;98.30
7844;DHT22;3967;48.702;9.326;2022-09-03T18:38:34;20.90;99.10
7844;DHT22;3967;48.702;9.326;2022-09-03T18:41:39;21.00;99.20
7844;DHT22;3967;48.702;9.326;2022-09-03T18:45:06;21.00;99.50
7844;DHT22;3967;48.702;9.326;2022-09-03T18:51:16;20.80;99.90
7844;DHT22;3967;48.702;9.326;2022-09-03T19:01:49;20.70;99.90
7844;DHT22;3967;48.702;9.326;2022-09-03T19:04:06;20.60;99.90
7844;DHT22;3967;48.702;9.326;2022-09-03T19:07:06;20.50;99.90
7844;DHT22;3967;48.702;9.326;2022-09-03T19:10:13;20.50;99.90
7844;DHT22;3967;48.702;9.326;2022-09-03T19:13:24;20.30;99.90
7844;DHT22;3967;48.702;9.326;2022-09-03T19:22:33;20.40;99.90
7844;DHT22;3967;48.702;9.326;2022-09-03T19:25:19;20.30;99.90
7844;DHT22;3967;48.702;9.326;2022-09-03T19:28:25;19.90;99.90
7844;DHT22;3967;48.702;9.326;2022-09-03T19:31:42;20.00;99.90
7844;DHT22;3967;48.702;9.326;2022-09-03T19:40:51;19.80;99.90
7844;DHT22;3967;48.702;9.326;2022-09-03T19:46:59;19.90;99.90
7844;DHT22;3967;48.702;9.326;2022-09-03T19:50:16;20.00;99.90
7844;DHT22;3967;48.702;9.326;2022-09-03T19:53:11;19.90;99.90
7844;DHT22;3967;48.702;9.326;2022-09-03T19:56:01;19.90;99.90
7844;DHT22;3967;48.702;9.326;2022-09-03T19:58:53;19.90;99.90
7844;DHT22;3967;48.702;9.326;2022-09-03T20:01:39;19.90;99.90
7844;DHT22;3967;48.702;9.326;2022-09-03T20:04:57;19.80;99.90
7844;DHT22;3967;48.702;9.326;2022-09-03T20:07:44;19.80;99.90
7844;DHT22;3967;48.702;9.326;2022-09-03T20:10:29;19.60;99.90
7844;DHT22;3967;48.702;9.326;2022-09-03T20:13:12;19.60;99.90
7844;DHT22;3967;48.702;9.326;2022-09-03T20:18:51;19.60;99.90
7844;DHT22;3967;48.702;9.326;2022-09-03T20:45:03;18.90;99.90
7844;DHT22;3967;48.702;9.326;2022-09-03T20:50:18;18.90;99.90
7844;DHT22;3967;48.702;9.326;2022-09-03T20:55:42;18.80;99.90
7844;DHT22;3967;48.702;9.326;2022-09-03T21:01:35;18.70;99.90
7844;DHT22;3967;48.702;9.326;2022-09-03T21:14:31;18.60;99.90
7844;DHT22;3967;48.702;9.326;2022-09-03T21:17:28;18.70;99.90
7844;DHT22;3967;48.702;9.326;2022-09-03T21:23:11;18.70;99.90
7844;DHT22;3967;48.702;9.326;2022-09-03T21:25:54;18.60;99.90
7844;DHT22;3967;48.702;9.326;2022-09-03T21:28:37;18.50;99.90
7844;DHT22;3967;48.702;9.326;2022-09-03T21:33:46;18.50;99.90
7844;DHT22;3967;48.702;9.326;2022-09-03T21:36:15;18.40;99.90
7844;DHT22;3967;48.702;9.326;2022-09-03T21:38:46;18.40;99.90
7844;DHT22;3967;48.702;9.326;2022-09-03T21:41:43;18.50;99.90
7844;DHT22;3967;48.702;9.326;2022-09-03T21:47:14;18.50;99.90
7844;DHT22;3967;48.702;9.326;2022-09-03T21:50:19;18.70;99.90
7844;DHT22;3967;48.702;9.326;2022-09-03T21:53:09;18.60;99.90
7844;DHT22;3967;48.702;9.326;2022-09-03T22:01:48;18.70;99.90
7844;DHT22;3967;48.702;9.326;2022-09-03T22:04:16;18.80;99.90
7844;DHT22;3967;48.702;9.326;2022-09-03T22:15:07;19.00;99.90
7844;DHT22;3967;48.702;9.326;2022-09-03T22:17:47;19.10;99.90
7844;DHT22;3967;48.702;9.326;2022-09-03T22:20:23;19.00;99.90
7844;DHT22;3967;48.702;9.326;2022-09-03T22:25:35;19.00;99.90
7844;DHT22;3967;48.702;9.326;2022-09-03T22:28:29;19.00;99.90
7844;DHT22;3967;48.702;9.326;2022-09-03T22:34:31;18.90;99.90
7844;DHT22;3967;48.702;9.326;2022-09-03T22:36:51;18.90;99.90
7844;DHT22;3967;48.702;9.326;2022-09-03T22:52:46;18.50;99.90
7844;DHT22;3967;48.702;9.326;2022-09-03T22:55:18;18.40;99.90
7844;DHT22;3967;48.702;9.326;2022-09-03T22:58:06;18.40;99.90
7844;DHT22;3967;48.702;9.326;2022-09-03T23:00:40;18.50;99.90
7844;DHT22;3967;48.702;9.326;2022-09-03T23:03:13;18.50;99.90
7844;DHT22;3967;48.702;9.326;2022-09-03T23:05:50;18.50;99.90
7844;DHT22;3967;48.702;9.326;2022-09-03T23:08:23;18.60;99.90
7844;DHT22;3967;48.702;9.326;2022-09-03T23:11:18;18.70;99.90
7844;DHT22;3967;48.702;9.326;2022-09-03T23:13:54;18.60;99.90
7844;DHT22;3967;48.702;9.326;2022-09-03T23:19:12;18.60;99.90
7844;DHT22;3967;48.702;9.326;2022-09-03T23:21:57;18.60;99.90
7844;DHT22;3967;48.702;9.326;2022-09-03T23:24:42;18.70;99.90